sim
Sign-in with your pilot id or email,
or register
Callsign
Passwort

Schedule Details

Flight Number: OEC87694
Departure: Stuttgart Airport (EDDS) at 12:00 UTC
Arrival: Fuerteventura Airport (GCFV) at 15:56 UTC

Weather Information
Getting current METAR information for EDDS 231050Z VRB04KT CAVOK 30/12 Q1022 NOSIG
Getting current METAR information for GCFV 231100Z 06015KT 9999 FEW020 24/19 Q1017

Schedule Frequency

Route Map